sensor_id;sensor_type;location;lat;lon;timestamp;temperature;humidity
38183;DHT22;23991;52.430;10.586;2023-11-21T00:00:15;9.70;86.00
38183;DHT22;23991;52.430;10.586;2023-11-21T00:02:41;9.70;86.00
38183;DHT22;23991;52.430;10.586;2023-11-21T00:05:08;9.70;85.90
38183;DHT22;23991;52.430;10.586;2023-11-21T00:07:36;9.70;86.00
38183;DHT22;23991;52.430;10.586;2023-11-21T00:10:01;9.70;86.00
38183;DHT22;23991;52.430;10.586;2023-11-21T00:12:28;9.70;86.00
38183;DHT22;23991;52.430;10.586;2023-11-21T00:14:55;9.70;86.00
38183;DHT22;23991;52.430;10.586;2023-11-21T00:17:21;9.70;86.00
38183;DHT22;23991;52.430;10.586;2023-11-21T00:19:46;9.70;85.90
38183;DHT22;23991;52.430;10.586;2023-11-21T00:22:12;9.60;86.00
38183;DHT22;23991;52.430;10.586;2023-11-21T00:24:38;9.60;86.00
38183;DHT22;23991;52.430;10.586;2023-11-21T00:27:04;9.60;86.00
38183;DHT22;23991;52.430;10.586;2023-11-21T00:29:29;9.60;86.00
38183;DHT22;23991;52.430;10.586;2023-11-21T00:31:55;9.60;85.90
38183;DHT22;23991;52.430;10.586;2023-11-21T00:34:21;9.60;86.00
38183;DHT22;23991;52.430;10.586;2023-11-21T00:36:46;9.60;86.00
38183;DHT22;23991;52.430;10.586;2023-11-21T00:39:12;9.60;86.00
38183;DHT22;23991;52.430;10.586;2023-11-21T00:41:38;9.60;86.10
38183;DHT22;23991;52.430;10.586;2023-11-21T00:44:04;9.60;86.00
38183;DHT22;23991;52.430;10.586;2023-11-21T00:46:30;9.50;86.10
38183;DHT22;23991;52.430;10.586;2023-11-21T00:48:55;9.50;86.10
38183;DHT22;23991;52.430;10.586;2023-11-21T00:51:21;9.50;86.10
38183;DHT22;23991;52.430;10.586;2023-11-21T00:53:47;9.50;86.10
38183;DHT22;23991;52.430;10.586;2023-11-21T00:56:14;9.50;86.10
38183;DHT22;23991;52.430;10.586;2023-11-21T00:58:40;9.50;86.20
38183;DHT22;23991;52.430;10.586;2023-11-21T01:01:11;9.50;86.10
38183;DHT22;23991;52.430;10.586;2023-11-21T01:03:37;9.50;86.10
38183;DHT22;23991;52.430;10.586;2023-11-21T01:06:03;9.50;86.10
38183;DHT22;23991;52.430;10.586;2023-11-21T01:08:32;9.50;86.10
38183;DHT22;23991;52.430;10.586;2023-11-21T01:10:58;9.50;86.10
38183;DHT22;23991;52.430;10.586;2023-11-21T01:13:24;9.50;86.10
38183;DHT22;23991;52.430;10.586;2023-11-21T01:15:54;9.50;86.10
38183;DHT22;23991;52.430;10.586;2023-11-21T01:18:19;9.50;86.20
38183;DHT22;23991;52.430;10.586;2023-11-21T01:20:45;9.40;86.20
38183;DHT22;23991;52.430;10.586;2023-11-21T01:23:13;9.40;86.20
38183;DHT22;23991;52.430;10.586;2023-11-21T01:25:39;9.40;86.20
38183;DHT22;23991;52.430;10.586;2023-11-21T01:28:04;9.40;86.20
38183;DHT22;23991;52.430;10.586;2023-11-21T01:30:31;9.40;86.20
38183;DHT22;23991;52.430;10.586;2023-11-21T01:32:58;9.40;86.20
38183;DHT22;23991;52.430;10.586;2023-11-21T01:35:24;9.40;86.30
38183;DHT22;23991;52.430;10.586;2023-11-21T01:37:50;9.40;86.30
38183;DHT22;23991;52.430;10.586;2023-11-21T01:40:16;9.40;86.40
38183;DHT22;23991;52.430;10.586;2023-11-21T01:42:42;9.40;86.30
38183;DHT22;23991;52.430;10.586;2023-11-21T01:45:09;9.40;86.40
38183;DHT22;23991;52.430;10.586;2023-11-21T01:47:36;9.40;86.40
38183;DHT22;23991;52.430;10.586;2023-11-21T01:50:03;9.40;86.50
38183;DHT22;23991;52.430;10.586;2023-11-21T01:52:31;9.40;86.40
38183;DHT22;23991;52.430;10.586;2023-11-21T01:54:58;9.40;86.50
38183;DHT22;23991;52.430;10.586;2023-11-21T01:57:24;9.40;86.50
38183;DHT22;23991;52.430;10.586;2023-11-21T01:59:52;9.40;86.60
38183;DHT22;23991;52.430;10.586;2023-11-21T02:02:19;9.30;86.60
38183;DHT22;23991;52.430;10.586;2023-11-21T02:04:45;9.30;86.70
38183;DHT22;23991;52.430;10.586;2023-11-21T02:07:11;9.30;86.70
38183;DHT22;23991;52.430;10.586;2023-11-21T02:09:37;9.30;86.70
38183;DHT22;23991;52.430;10.586;2023-11-21T02:12:08;9.30;86.70
38183;DHT22;23991;52.430;10.586;2023-11-21T02:14:36;9.30;86.70
38183;DHT22;23991;52.430;10.586;2023-11-21T02:17:02;9.30;86.70
38183;DHT22;23991;52.430;10.586;2023-11-21T02:19:28;9.30;86.80
38183;DHT22;23991;52.430;10.586;2023-11-21T02:21:57;9.30;86.90
38183;DHT22;23991;52.430;10.586;2023-11-21T02:24:34;9.30;86.80
38183;DHT22;23991;52.430;10.586;2023-11-21T02:27:00;9.30;86.80
38183;DHT22;23991;52.430;10.586;2023-11-21T02:29:26;9.30;86.80
38183;DHT22;23991;52.430;10.586;2023-11-21T02:31:54;9.30;86.90
38183;DHT22;23991;52.430;10.586;2023-11-21T02:34:21;9.30;86.90
38183;DHT22;23991;52.430;10.586;2023-11-21T02:36:47;9.30;86.90
38183;DHT22;23991;52.430;10.586;2023-11-21T02:39:15;9.30;87.00
38183;DHT22;23991;52.430;10.586;2023-11-21T02:41:42;9.30;87.00
38183;DHT22;23991;52.430;10.586;2023-11-21T02:44:08;9.30;87.00
38183;DHT22;23991;52.430;10.586;2023-11-21T02:46:34;9.30;87.10
38183;DHT22;23991;52.430;10.586;2023-11-21T02:49:03;9.30;87.10
38183;DHT22;23991;52.430;10.586;2023-11-21T02:51:31;9.30;87.10
38183;DHT22;23991;52.430;10.586;2023-11-21T02:53:57;9.20;87.20
38183;DHT22;23991;52.430;10.586;2023-11-21T02:56:28;9.20;87.20
38183;DHT22;23991;52.430;10.586;2023-11-21T02:58:59;9.20;87.30
38183;DHT22;23991;52.430;10.586;2023-11-21T03:01:26;9.20;87.20
38183;DHT22;23991;52.430;10.586;2023-11-21T03:03:52;9.20;87.20
38183;DHT22;23991;52.430;10.586;2023-11-21T03:06:21;9.30;87.20
38183;DHT22;23991;52.430;10.586;2023-11-21T03:08:47;9.30;87.30
38183;DHT22;23991;52.430;10.586;2023-11-21T03:11:13;9.20;87.20
38183;DHT22;23991;52.430;10.586;2023-11-21T03:13:42;9.30;87.20
38183;DHT22;23991;52.430;10.586;2023-11-21T03:16:09;9.30;87.30
38183;DHT22;23991;52.430;10.586;2023-11-21T03:18:38;9.20;87.20
38183;DHT22;23991;52.430;10.586;2023-11-21T03:21:07;9.20;87.40
38183;DHT22;23991;52.430;10.586;2023-11-21T03:23:36;9.20;87.30
38183;DHT22;23991;52.430;10.586;2023-11-21T03:26:03;9.20;87.40
38183;DHT22;23991;52.430;10.586;2023-11-21T03:28:28;9.20;87.40
38183;DHT22;23991;52.430;10.586;2023-11-21T03:30:55;9.20;87.40
38183;DHT22;23991;52.430;10.586;2023-11-21T03:33:21;9.20;87.50
38183;DHT22;23991;52.430;10.586;2023-11-21T03:35:48;9.20;87.50
38183;DHT22;23991;52.430;10.586;2023-11-21T03:38:13;9.20;87.60
38183;DHT22;23991;52.430;10.586;2023-11-21T03:40:39;9.20;87.60
38183;DHT22;23991;52.430;10.586;2023-11-21T03:43:05;9.20;87.60
38183;DHT22;23991;52.430;10.586;2023-11-21T03:45:32;9.20;87.60
38183;DHT22;23991;52.430;10.586;2023-11-21T03:47:57;9.20;87.70
38183;DHT22;23991;52.430;10.586;2023-11-21T03:50:23;9.20;87.70
38183;DHT22;23991;52.430;10.586;2023-11-21T03:52:52;9.30;87.80
38183;DHT22;23991;52.430;10.586;2023-11-21T03:55:17;9.20;87.80
38183;DHT22;23991;52.430;10.586;2023-11-21T03:57:43;9.20;87.90
38183;DHT22;23991;52.430;10.586;2023-11-21T04:00:09;9.20;87.90
38183;DHT22;23991;52.430;10.586;2023-11-21T04:02:35;9.20;87.90
38183;DHT22;23991;52.430;10.586;2023-11-21T04:05:01;9.20;88.00
38183;DHT22;23991;52.430;10.586;2023-11-21T04:07:26;9.10;88.10
38183;DHT22;23991;52.430;10.586;2023-11-21T04:09:52;9.20;88.10
38183;DHT22;23991;52.430;10.586;2023-11-21T04:12:19;9.20;88.10
38183;DHT22;23991;52.430;10.586;2023-11-21T04:14:45;9.20;88.10
38183;DHT22;23991;52.430;10.586;2023-11-21T04:17:10;9.20;88.10
38183;DHT22;23991;52.430;10.586;2023-11-21T04:19:36;9.20;88.20
38183;DHT22;23991;52.430;10.586;2023-11-21T04:22:02;9.20;88.20
38183;DHT22;23991;52.430;10.586;2023-11-21T04:24:27;9.20;88.30
38183;DHT22;23991;52.430;10.586;2023-11-21T04:26:53;9.20;88.40
38183;DHT22;23991;52.430;10.586;2023-11-21T04:29:19;9.20;88.30
38183;DHT22;23991;52.430;10.586;2023-11-21T04:31:44;9.20;88.40
38183;DHT22;23991;52.430;10.586;2023-11-21T04:34:11;9.20;88.40
38183;DHT22;23991;52.430;10.586;2023-11-21T04:36:38;9.20;88.40
38183;DHT22;23991;52.430;10.586;2023-11-21T04:39:04;9.20;88.50
38183;DHT22;23991;52.430;10.586;2023-11-21T04:41:29;9.20;88.50
38183;DHT22;23991;52.430;10.586;2023-11-21T04:43:57;9.20;88.60
38183;DHT22;23991;52.430;10.586;2023-11-21T04:46:24;9.20;88.60
38183;DHT22;23991;52.430;10.586;2023-11-21T04:48:49;9.20;88.60
38183;DHT22;23991;52.430;10.586;2023-11-21T04:51:15;9.10;88.60
38183;DHT22;23991;52.430;10.586;2023-11-21T04:53:41;9.10;88.60
38183;DHT22;23991;52.430;10.586;2023-11-21T04:56:06;9.10;88.60
38183;DHT22;23991;52.430;10.586;2023-11-21T04:58:32;9.10;88.60
38183;DHT22;23991;52.430;10.586;2023-11-21T05:00:58;9.10;88.60
38183;DHT22;23991;52.430;10.586;2023-11-21T05:03:24;9.10;88.60
38183;DHT22;23991;52.430;10.586;2023-11-21T05:05:49;9.10;88.40
38183;DHT22;23991;52.430;10.586;2023-11-21T05:08:15;9.00;88.30
38183;DHT22;23991;52.430;10.586;2023-11-21T05:10:41;9.00;88.20
38183;DHT22;23991;52.430;10.586;2023-11-21T05:13:06;9.00;88.10
38183;DHT22;23991;52.430;10.586;2023-11-21T05:15:36;9.00;88.10
38183;DHT22;23991;52.430;10.586;2023-11-21T05:18:01;9.00;87.80
38183;DHT22;23991;52.430;10.586;2023-11-21T05:20:28;8.90;87.70
38183;DHT22;23991;52.430;10.586;2023-11-21T05:22:53;8.90;87.60
38183;DHT22;23991;52.430;10.586;2023-11-21T05:25:19;8.90;87.40
38183;DHT22;23991;52.430;10.586;2023-11-21T05:27:48;8.90;87.30
38183;DHT22;23991;52.430;10.586;2023-11-21T05:30:14;8.90;87.40
38183;DHT22;23991;52.430;10.586;2023-11-21T05:32:40;8.90;87.30
38183;DHT22;23991;52.430;10.586;2023-11-21T05:35:09;8.90;87.30
38183;DHT22;23991;52.430;10.586;2023-11-21T05:37:38;8.90;87.10
38183;DHT22;23991;52.430;10.586;2023-11-21T05:40:07;8.80;86.90
38183;DHT22;23991;52.430;10.586;2023-11-21T05:42:34;8.90;87.00
38183;DHT22;23991;52.430;10.586;2023-11-21T05:45:00;8.90;86.90
38183;DHT22;23991;52.430;10.586;2023-11-21T05:47:44;8.80;86.80
38183;DHT22;23991;52.430;10.586;2023-11-21T05:50:13;8.80;86.80
38183;DHT22;23991;52.430;10.586;2023-11-21T05:52:49;8.80;86.70
38183;DHT22;23991;52.430;10.586;2023-11-21T05:55:15;8.80;86.60
38183;DHT22;23991;52.430;10.586;2023-11-21T05:57:42;8.80;86.40
38183;DHT22;23991;52.430;10.586;2023-11-21T06:00:13;8.70;86.40
38183;DHT22;23991;52.430;10.586;2023-11-21T06:02:55;8.70;86.50
38183;DHT22;23991;52.430;10.586;2023-11-21T06:05:23;8.70;86.50
38183;DHT22;23991;52.430;10.586;2023-11-21T06:07:49;8.60;86.50
38183;DHT22;23991;52.430;10.586;2023-11-21T06:10:16;8.60;86.50
38183;DHT22;23991;52.430;10.586;2023-11-21T06:12:43;8.60;86.40
38183;DHT22;23991;52.430;10.586;2023-11-21T06:15:10;8.60;86.40
38183;DHT22;23991;52.430;10.586;2023-11-21T06:17:39;8.50;86.40
38183;DHT22;23991;52.430;10.586;2023-11-21T06:20:09;8.50;86.30
38183;DHT22;23991;52.430;10.586;2023-11-21T06:22:37;8.50;86.30
38183;DHT22;23991;52.430;10.586;2023-11-21T06:25:04;8.50;86.30
38183;DHT22;23991;52.430;10.586;2023-11-21T06:27:32;8.50;86.20
38183;DHT22;23991;52.430;10.586;2023-11-21T06:29:58;8.40;86.10
38183;DHT22;23991;52.430;10.586;2023-11-21T06:32:24;8.40;86.00
38183;DHT22;23991;52.430;10.586;2023-11-21T06:34:49;8.40;86.10
38183;DHT22;23991;52.430;10.586;2023-11-21T06:37:15;8.40;86.10
38183;DHT22;23991;52.430;10.586;2023-11-21T06:39:42;8.40;85.80
38183;DHT22;23991;52.430;10.586;2023-11-21T06:42:08;8.40;85.90
38183;DHT22;23991;52.430;10.586;2023-11-21T06:44:33;8.40;85.50
38183;DHT22;23991;52.430;10.586;2023-11-21T06:47:01;8.40;85.40
38183;DHT22;23991;52.430;10.586;2023-11-21T06:49:26;8.40;85.40
38183;DHT22;23991;52.430;10.586;2023-11-21T06:51:52;8.40;85.50
38183;DHT22;23991;52.430;10.586;2023-11-21T06:54:18;8.30;85.60
38183;DHT22;23991;52.430;10.586;2023-11-21T06:56:44;8.30;85.40
38183;DHT22;23991;52.430;10.586;2023-11-21T06:59:10;8.30;85.40
38183;DHT22;23991;52.430;10.586;2023-11-21T07:01:36;8.30;85.50
38183;DHT22;23991;52.430;10.586;2023-11-21T07:04:05;8.30;85.50
38183;DHT22;23991;52.430;10.586;2023-11-21T07:06:31;8.30;85.50
38183;DHT22;23991;52.430;10.586;2023-11-21T07:08:57;8.30;85.60
38183;DHT22;23991;52.430;10.586;2023-11-21T07:11:24;8.30;85.70
38183;DHT22;23991;52.430;10.586;2023-11-21T07:13:50;8.30;85.70
38183;DHT22;23991;52.430;10.586;2023-11-21T07:16:18;8.30;85.40
38183;DHT22;23991;52.430;10.586;2023-11-21T07:18:44;8.30;85.40
38183;DHT22;23991;52.430;10.586;2023-11-21T07:21:10;8.30;85.30
38183;DHT22;23991;52.430;10.586;2023-11-21T07:23:40;8.20;85.20
38183;DHT22;23991;52.430;10.586;2023-11-21T07:26:06;8.20;85.10
38183;DHT22;23991;52.430;10.586;2023-11-21T07:28:35;8.20;85.00
38183;DHT22;23991;52.430;10.586;2023-11-21T07:31:01;8.20;85.00
38183;DHT22;23991;52.430;10.586;2023-11-21T07:33:27;8.30;84.90
38183;DHT22;23991;52.430;10.586;2023-11-21T07:35:52;8.30;84.80
38183;DHT22;23991;52.430;10.586;2023-11-21T07:38:18;8.30;84.40
38183;DHT22;23991;52.430;10.586;2023-11-21T07:40:44;8.40;84.10
38183;DHT22;23991;52.430;10.586;2023-11-21T07:43:09;8.40;83.90
38183;DHT22;23991;52.430;10.586;2023-11-21T07:45:36;8.50;83.90
38183;DHT22;23991;52.430;10.586;2023-11-21T07:48:02;8.60;83.50
38183;DHT22;23991;52.430;10.586;2023-11-21T07:50:29;8.60;83.40
38183;DHT22;23991;52.430;10.586;2023-11-21T07:52:55;8.70;83.20
38183;DHT22;23991;52.430;10.586;2023-11-21T07:55:21;8.80;82.90
38183;DHT22;23991;52.430;10.586;2023-11-21T07:57:46;8.90;82.70
38183;DHT22;23991;52.430;10.586;2023-11-21T08:00:12;9.00;82.40
38183;DHT22;23991;52.430;10.586;2023-11-21T08:02:41;9.00;81.40
38183;DHT22;23991;52.430;10.586;2023-11-21T08:05:08;9.00;81.10
38183;DHT22;23991;52.430;10.586;2023-11-21T08:07:34;9.10;80.90
38183;DHT22;23991;52.430;10.586;2023-11-21T08:10:00;9.20;80.70
38183;DHT22;23991;52.430;10.586;2023-11-21T08:12:26;9.20;80.10
38183;DHT22;23991;52.430;10.586;2023-11-21T08:14:53;9.30;79.70
38183;DHT22;23991;52.430;10.586;2023-11-21T08:17:19;9.40;79.20
38183;DHT22;23991;52.430;10.586;2023-11-21T08:19:45;9.50;78.60
38183;DHT22;23991;52.430;10.586;2023-11-21T08:22:15;9.60;78.10
38183;DHT22;23991;52.430;10.586;2023-11-21T08:24:41;9.70;77.70
38183;DHT22;23991;52.430;10.586;2023-11-21T08:27:07;9.80;77.30
38183;DHT22;23991;52.430;10.586;2023-11-21T08:29:33;9.90;76.80
38183;DHT22;23991;52.430;10.586;2023-11-21T08:31:59;9.90;76.90
38183;DHT22;23991;52.430;10.586;2023-11-21T08:34:25;10.10;76.30
38183;DHT22;23991;52.430;10.586;2023-11-21T08:36:51;10.20;76.20
38183;DHT22;23991;52.430;10.586;2023-11-21T08:39:16;10.20;75.90
38183;DHT22;23991;52.430;10.586;2023-11-21T08:41:44;10.30;75.60
38183;DHT22;23991;52.430;10.586;2023-11-21T08:44:10;10.40;75.30
38183;DHT22;23991;52.430;10.586;2023-11-21T08:46:36;10.50;74.30
38183;DHT22;23991;52.430;10.586;2023-11-21T08:49:03;10.60;73.70
38183;DHT22;23991;52.430;10.586;2023-11-21T08:51:29;10.70;73.50
38183;DHT22;23991;52.430;10.586;2023-11-21T08:53:55;10.80;73.00
38183;DHT22;23991;52.430;10.586;2023-11-21T08:56:24;10.80;72.40
38183;DHT22;23991;52.430;10.586;2023-11-21T08:58:50;10.90;71.80
38183;DHT22;23991;52.430;10.586;2023-11-21T09:01:16;11.10;71.40
38183;DHT22;23991;52.430;10.586;2023-11-21T09:03:42;11.20;71.10
38183;DHT22;23991;52.430;10.586;2023-11-21T09:06:09;11.20;70.60
38183;DHT22;23991;52.430;10.586;2023-11-21T09:08:35;11.30;70.80
38183;DHT22;23991;52.430;10.586;2023-11-21T09:11:01;11.30;69.80
38183;DHT22;23991;52.430;10.586;2023-11-21T09:13:28;11.50;69.10
38183;DHT22;23991;52.430;10.586;2023-11-21T09:15:55;11.50;69.60
38183;DHT22;23991;52.430;10.586;2023-11-21T09:18:20;11.60;68.40
38183;DHT22;23991;52.430;10.586;2023-11-21T09:20:46;11.80;68.20
38183;DHT22;23991;52.430;10.586;2023-11-21T09:23:12;11.90;67.40
38183;DHT22;23991;52.430;10.586;2023-11-21T09:25:37;11.90;66.20
38183;DHT22;23991;52.430;10.586;2023-11-21T09:28:05;12.00;66.00
38183;DHT22;23991;52.430;10.586;2023-11-21T09:30:33;12.10;65.00
38183;DHT22;23991;52.430;10.586;2023-11-21T09:32:59;12.30;64.50
38183;DHT22;23991;52.430;10.586;2023-11-21T09:35:26;12.50;63.60
38183;DHT22;23991;52.430;10.586;2023-11-21T09:37:53;12.70;63.50
38183;DHT22;23991;52.430;10.586;2023-11-21T09:40:25;12.80;63.40
38183;DHT22;23991;52.430;10.586;2023-11-21T09:42:56;12.90;62.50
38183;DHT22;23991;52.430;10.586;2023-11-21T09:47:53;12.90;61.40
38183;DHT22;23991;52.430;10.586;2023-11-21T09:50:20;13.00;60.10
38183;DHT22;23991;52.430;10.586;2023-11-21T09:53:09;13.10;60.40
38183;DHT22;23991;52.430;10.586;2023-11-21T09:55:35;13.20;60.90
38183;DHT22;23991;52.430;10.586;2023-11-21T09:58:06;13.30;60.70
38183;DHT22;23991;52.430;10.586;2023-11-21T10:00:33;13.40;60.00
38183;DHT22;23991;52.430;10.586;2023-11-21T10:02:59;13.40;59.10
38183;DHT22;23991;52.430;10.586;2023-11-21T10:05:25;13.50;58.90
38183;DHT22;23991;52.430;10.586;2023-11-21T10:07:52;13.40;58.30
38183;DHT22;23991;52.430;10.586;2023-11-21T10:10:20;13.30;58.30
38183;DHT22;23991;52.430;10.586;2023-11-21T10:12:50;13.40;58.80
38183;DHT22;23991;52.430;10.586;2023-11-21T10:15:21;13.30;58.90
38183;DHT22;23991;52.430;10.586;2023-11-21T10:17:51;13.30;59.20
38183;DHT22;23991;52.430;10.586;2023-11-21T10:20:20;13.10;59.40
38183;DHT22;23991;52.430;10.586;2023-11-21T10:22:46;13.10;59.30
38183;DHT22;23991;52.430;10.586;2023-11-21T10:25:12;13.10;58.80
38183;DHT22;23991;52.430;10.586;2023-11-21T10:27:42;13.30;58.70
38183;DHT22;23991;52.430;10.586;2023-11-21T10:30:09;13.30;58.90
38183;DHT22;23991;52.430;10.586;2023-11-21T10:32:42;13.30;58.80
38183;DHT22;23991;52.430;10.586;2023-11-21T10:35:09;13.10;59.10
38183;DHT22;23991;52.430;10.586;2023-11-21T10:37:40;13.20;59.20
38183;DHT22;23991;52.430;10.586;2023-11-21T10:40:10;13.30;59.70
38183;DHT22;23991;52.430;10.586;2023-11-21T10:42:41;13.40;59.20
38183;DHT22;23991;52.430;10.586;2023-11-21T10:45:08;13.50;59.30
38183;DHT22;23991;52.430;10.586;2023-11-21T10:47:41;13.40;58.70
38183;DHT22;23991;52.430;10.586;2023-11-21T10:50:07;13.40;58.40
38183;DHT22;23991;52.430;10.586;2023-11-21T10:52:45;13.40;58.60
38183;DHT22;23991;52.430;10.586;2023-11-21T10:55:19;13.40;58.90
38183;DHT22;23991;52.430;10.586;2023-11-21T10:57:50;13.30;58.70
38183;DHT22;23991;52.430;10.586;2023-11-21T11:00:18;13.20;59.00
38183;DHT22;23991;52.430;10.586;2023-11-21T11:02:50;13.60;58.70
38183;DHT22;23991;52.430;10.586;2023-11-21T11:05:19;14.00;56.40
38183;DHT22;23991;52.430;10.586;2023-11-21T11:07:48;14.10;56.00
38183;DHT22;23991;52.430;10.586;2023-11-21T11:10:18;14.30;55.90
38183;DHT22;23991;52.430;10.586;2023-11-21T11:12:47;14.40;55.80
38183;DHT22;23991;52.430;10.586;2023-11-21T11:15:13;14.10;55.40
38183;DHT22;23991;52.430;10.586;2023-11-21T11:17:40;14.20;55.60
38183;DHT22;23991;52.430;10.586;2023-11-21T11:20:09;14.40;55.90
38183;DHT22;23991;52.430;10.586;2023-11-21T11:22:37;14.40;55.20
38183;DHT22;23991;52.430;10.586;2023-11-21T11:28:13;14.60;54.30
38183;DHT22;23991;52.430;10.586;2023-11-21T11:30:53;14.80;54.20
38183;DHT22;23991;52.430;10.586;2023-11-21T11:33:39;14.50;54.10
38183;DHT22;23991;52.430;10.586;2023-11-21T11:36:19;14.30;54.20
38183;DHT22;23991;52.430;10.586;2023-11-21T11:38:47;14.10;54.60
38183;DHT22;23991;52.430;10.586;2023-11-21T11:41:29;14.10;54.10
38183;DHT22;23991;52.430;10.586;2023-11-21T11:43:57;14.20;53.30
38183;DHT22;23991;52.430;10.586;2023-11-21T11:46:42;14.20;52.70
38183;DHT22;23991;52.430;10.586;2023-11-21T11:49:10;14.10;53.30
38183;DHT22;23991;52.430;10.586;2023-11-21T11:51:36;14.50;52.30
38183;DHT22;23991;52.430;10.586;2023-11-21T11:54:02;14.50;52.40
38183;DHT22;23991;52.430;10.586;2023-11-21T11:56:32;14.80;52.30
38183;DHT22;23991;52.430;10.586;2023-11-21T11:59:03;14.90;52.00
38183;DHT22;23991;52.430;10.586;2023-11-21T12:01:30;15.00;51.90
38183;DHT22;23991;52.430;10.586;2023-11-21T12:06:42;15.30;50.20
38183;DHT22;23991;52.430;10.586;2023-11-21T12:09:23;15.30;49.40
38183;DHT22;23991;52.430;10.586;2023-11-21T12:11:51;15.50;48.90
38183;DHT22;23991;52.430;10.586;2023-11-21T12:14:17;15.60;48.10
38183;DHT22;23991;52.430;10.586;2023-11-21T12:16:43;15.60;47.90
38183;DHT22;23991;52.430;10.586;2023-11-21T12:19:11;15.80;47.80
38183;DHT22;23991;52.430;10.586;2023-11-21T12:21:37;15.70;47.90
38183;DHT22;23991;52.430;10.586;2023-11-21T12:24:03;15.70;47.80
38183;DHT22;23991;52.430;10.586;2023-11-21T12:26:29;15.70;48.00
38183;DHT22;23991;52.430;10.586;2023-11-21T12:28:56;15.70;47.80
38183;DHT22;23991;52.430;10.586;2023-11-21T12:31:22;15.50;48.20
38183;DHT22;23991;52.430;10.586;2023-11-21T12:33:48;15.40;47.50
38183;DHT22;23991;52.430;10.586;2023-11-21T12:36:14;14.80;48.40
38183;DHT22;23991;52.430;10.586;2023-11-21T12:38:40;14.90;48.70
38183;DHT22;23991;52.430;10.586;2023-11-21T12:41:08;14.90;48.70
38183;DHT22;23991;52.430;10.586;2023-11-21T12:43:35;14.90;49.10
38183;DHT22;23991;52.430;10.586;2023-11-21T12:46:08;15.00;48.60
38183;DHT22;23991;52.430;10.586;2023-11-21T12:48:39;15.10;47.90
38183;DHT22;23991;52.430;10.586;2023-11-21T12:51:08;15.10;48.40
38183;DHT22;23991;52.430;10.586;2023-11-21T12:53:37;14.90;49.60
38183;DHT22;23991;52.430;10.586;2023-11-21T12:56:07;14.90;50.20
38183;DHT22;23991;52.430;10.586;2023-11-21T12:58:36;14.80;50.30
38183;DHT22;23991;52.430;10.586;2023-11-21T13:01:02;14.90;50.50
38183;DHT22;23991;52.430;10.586;2023-11-21T13:03:30;15.10;50.00
38183;DHT22;23991;52.430;10.586;2023-11-21T13:05:58;15.00;50.30
38183;DHT22;23991;52.430;10.586;2023-11-21T13:08:25;14.80;50.30
38183;DHT22;23991;52.430;10.586;2023-11-21T13:10:54;14.80;49.90
38183;DHT22;23991;52.430;10.586;2023-11-21T13:13:21;14.80;49.50
38183;DHT22;23991;52.430;10.586;2023-11-21T13:18:27;14.40;50.30
38183;DHT22;23991;52.430;10.586;2023-11-21T13:20:54;14.30;50.10
38183;DHT22;23991;52.430;10.586;2023-11-21T13:23:20;14.10;51.20
38183;DHT22;23991;52.430;10.586;2023-11-21T13:25:46;14.20;51.20
38183;DHT22;23991;52.430;10.586;2023-11-21T13:28:13;14.40;50.70
38183;DHT22;23991;52.430;10.586;2023-11-21T13:30:41;14.10;50.40
38183;DHT22;23991;52.430;10.586;2023-11-21T13:33:08;13.80;51.70
38183;DHT22;23991;52.430;10.586;2023-11-21T13:35:36;13.90;52.20
38183;DHT22;23991;52.430;10.586;2023-11-21T13:38:16;13.90;51.10
38183;DHT22;23991;52.430;10.586;2023-11-21T13:40:48;13.90;51.90
38183;DHT22;23991;52.430;10.586;2023-11-21T13:43:18;14.00;51.80
38183;DHT22;23991;52.430;10.586;2023-11-21T13:45:45;14.10;50.50
38183;DHT22;23991;52.430;10.586;2023-11-21T13:48:12;13.90;51.30
38183;DHT22;23991;52.430;10.586;2023-11-21T13:50:54;13.60;51.60
38183;DHT22;23991;52.430;10.586;2023-11-21T13:53:47;13.50;52.20
38183;DHT22;23991;52.430;10.586;2023-11-21T13:56:15;13.60;52.40
38183;DHT22;23991;52.430;10.586;2023-11-21T13:58:50;13.30;52.20
38183;DHT22;23991;52.430;10.586;2023-11-21T14:01:22;13.10;53.30
38183;DHT22;23991;52.430;10.586;2023-11-21T14:03:51;13.20;53.50
38183;DHT22;23991;52.430;10.586;2023-11-21T14:06:23;13.30;53.00
38183;DHT22;23991;52.430;10.586;2023-11-21T14:08:58;13.20;53.40
38183;DHT22;23991;52.430;10.586;2023-11-21T14:11:23;13.30;53.60
38183;DHT22;23991;52.430;10.586;2023-11-21T14:13:50;13.60;52.50
38183;DHT22;23991;52.430;10.586;2023-11-21T14:16:15;13.70;52.20
38183;DHT22;23991;52.430;10.586;2023-11-21T14:18:43;13.60;52.50
38183;DHT22;23991;52.430;10.586;2023-11-21T14:21:20;13.50;52.90
38183;DHT22;23991;52.430;10.586;2023-11-21T14:23:47;13.60;53.20
38183;DHT22;23991;52.430;10.586;2023-11-21T14:26:14;13.30;53.00
38183;DHT22;23991;52.430;10.586;2023-11-21T14:28:41;13.50;52.80
38183;DHT22;23991;52.430;10.586;2023-11-21T14:31:07;13.40;53.10
38183;DHT22;23991;52.430;10.586;2023-11-21T14:33:33;13.40;52.50
38183;DHT22;23991;52.430;10.586;2023-11-21T14:35:59;13.10;52.70
38183;DHT22;23991;52.430;10.586;2023-11-21T14:38:24;12.90;53.40
38183;DHT22;23991;52.430;10.586;2023-11-21T14:40:50;12.80;54.10
38183;DHT22;23991;52.430;10.586;2023-11-21T14:43:16;12.90;54.10
38183;DHT22;23991;52.430;10.586;2023-11-21T14:45:43;12.90;54.70
38183;DHT22;23991;52.430;10.586;2023-11-21T14:48:09;12.90;54.30
38183;DHT22;23991;52.430;10.586;2023-11-21T14:50:42;13.00;54.60
38183;DHT22;23991;52.430;10.586;2023-11-21T14:53:15;13.00;54.60
38183;DHT22;23991;52.430;10.586;2023-11-21T14:55:41;12.90;54.90
38183;DHT22;23991;52.430;10.586;2023-11-21T14:58:16;12.70;54.90
38183;DHT22;23991;52.430;10.586;2023-11-21T15:00:49;12.50;55.40
38183;DHT22;23991;52.430;10.586;2023-11-21T15:03:22;12.60;56.00
38183;DHT22;23991;52.430;10.586;2023-11-21T15:06:00;12.50;55.40
38183;DHT22;23991;52.430;10.586;2023-11-21T15:08:57;12.40;55.50
38183;DHT22;23991;52.430;10.586;2023-11-21T15:11:32;12.40;55.40
38183;DHT22;23991;52.430;10.586;2023-11-21T15:13:58;12.50;55.50
38183;DHT22;23991;52.430;10.586;2023-11-21T15:16:24;12.50;55.30
38183;DHT22;23991;52.430;10.586;2023-11-21T15:18:52;12.30;55.50
38183;DHT22;23991;52.430;10.586;2023-11-21T15:21:19;12.20;55.90
38183;DHT22;23991;52.430;10.586;2023-11-21T15:23:47;12.20;56.20
38183;DHT22;23991;52.430;10.586;2023-11-21T15:26:13;12.10;56.30
38183;DHT22;23991;52.430;10.586;2023-11-21T15:28:39;11.80;56.40
38183;DHT22;23991;52.430;10.586;2023-11-21T15:31:04;11.80;56.70
38183;DHT22;23991;52.430;10.586;2023-11-21T15:33:30;11.80;56.50
38183;DHT22;23991;52.430;10.586;2023-11-21T15:35:56;11.80;56.30
38183;DHT22;23991;52.430;10.586;2023-11-21T15:38:23;11.80;56.60